Time;durP1;ratioP1;P1;durP2;ratioP2;P2;SDS_P1;SDS_P2;PMS_P1;PMS_P2;Temp;Humidity;BMP_temperature;BMP_pressure;BME280_temperature;BME280_humidity;BME280_pressure;Samples;Min_cycle;Max_cycle;Signal;HPM_P1;HPM_P2
2024/03/26 00:01:07;;;;;;;;;;;;;;;2.45;100.00;95659.79;108532;1280;124620;-85
2024/03/26 00:03:44;;;;;;;;;;;;;;;2.49;100.00;95658.29;108702;1280;22457;-85
2024/03/26 00:06:11;;;;;;;;;;;;;;;2.52;100.00;95658.63;108535;1281;124612;-85
2024/03/26 00:08:37;;;;;;;;;;;;;;;2.55;100.00;95656.44;108601;1281;24206;-85
2024/03/26 00:11:03;;;;;;;;;;;;;;;2.52;100.00;95656.77;108516;1281;124691;-85
2024/03/26 00:13:30;;;;;;;;;;;;;;;2.50;100.00;95653.52;108658;1276;22540;-85
2024/03/26 00:15:56;;;;;;;;;;;;;;;2.49;100.00;95651.38;108628;1281;22539;-85
2024/03/26 00:18:22;;;;;;;;;;;;;;;2.49;100.00;95652.27;108569;1280;124585;-85
2024/03/26 00:20:49;;;;;;;;;;;;;;;2.46;100.00;95652.92;108733;1279;24206;-85
2024/03/26 00:23:16;;;;;;;;;;;;;;;2.45;100.00;95652.98;108540;1280;125133;-85
2024/03/26 00:25:43;;;;;;;;;;;;;;;2.43;100.00;95653.52;108595;1279;22512;-85
2024/03/26 00:28:09;;;;;;;;;;;;;;;2.43;100.00;95652.80;108753;1280;22626;-85
2024/03/26 00:30:36;;;;;;;;;;;;;;;2.46;100.00;95655.10;108571;1281;124775;-85
2024/03/26 00:33:11;;;;;;;;;;;;;;;2.43;100.00;95653.81;110063;1281;22376;-86
2024/03/26 00:35:38;;;;;;;;;;;;;;;2.39;100.00;95650.61;109902;1281;124733;-86
2024/03/26 00:38:04;;;;;;;;;;;;;;;2.41;100.00;95651.81;109983;1281;23288;-86
2024/03/26 00:40:31;;;;;;;;;;;;;;;2.38;100.00;95651.52;110035;1276;22399;-86
2024/03/26 00:42:57;;;;;;;;;;;;;;;2.35;100.00;95649.11;109907;1279;124691;-87
2024/03/26 00:45:23;;;;;;;;;;;;;;;2.32;100.00;95649.97;110025;1279;23016;-87
2024/03/26 00:47:49;;;;;;;;;;;;;;;2.29;100.00;95647.55;109176;1274;124532;-86
2024/03/26 00:50:18;;;;;;;;;;;;;;;2.26;100.00;95650.35;108710;1273;23855;-86
2024/03/26 00:52:44;;;;;;;;;;;;;;;2.24;100.00;95646.17;108608;1281;22555;-86
2024/03/26 00:55:11;;;;;;;;;;;;;;;2.21;100.00;95650.54;108518;1271;124845;-86
2024/03/26 00:57:37;;;;;;;;;;;;;;;2.18;100.00;95648.08;108659;1279;22523;-87
2024/03/26 01:00:03;;;;;;;;;;;;;;;2.16;100.00;95648.63;108574;1273;124527;-87
2024/03/26 01:02:34;;;;;;;;;;;;;;;2.16;100.00;95647.98;108621;1281;22529;-86
2024/03/26 01:05:01;;;;;;;;;;;;;;;2.17;100.00;95645.29;108623;1277;22529;-84
2024/03/26 01:07:27;;;;;;;;;;;;;;;2.12;100.00;95644.73;108603;1281;22558;-84
2024/03/26 01:09:53;;;;;;;;;;;;;;;2.10;100.00;95644.41;108640;1280;25293;-84
2024/03/26 01:12:20;;;;;;;;;;;;;;;2.05;100.00;95646.05;108605;1260;124544;-83
2024/03/26 01:14:46;;;;;;;;;;;;;;;2.00;100.00;95645.34;108686;1280;22547;-84
2024/03/26 01:17:12;;;;;;;;;;;;;;;1.96;100.00;95647.10;108577;1280;125197;-84
2024/03/26 01:19:39;;;;;;;;;;;;;;;1.94;100.00;95644.91;108702;1281;22934;-84
2024/03/26 01:22:05;;;;;;;;;;;;;;;1.91;100.00;95643.20;108671;1276;22520;-84
2024/03/26 01:24:31;;;;;;;;;;;;;;;1.87;100.00;95642.66;108499;1281;124887;-84
2024/03/26 01:26:58;;;;;;;;;;;;;;;1.86;100.00;95639.08;108633;1275;22464;-84
2024/03/26 01:29:25;;;;;;;;;;;;;;;1.82;100.00;95639.26;108620;1279;125067;-84
2024/03/26 01:31:51;;;;;;;;;;;;;;;1.79;100.00;95642.78;108758;1280;22515;-84
2024/03/26 01:34:17;;;;;;;;;;;;;;;1.76;100.00;95638.86;108768;1272;22618;-84
2024/03/26 01:36:44;;;;;;;;;;;;;;;1.73;100.00;95632.08;108562;1280;124727;-84
2024/03/26 01:39:12;;;;;;;;;;;;;;;1.70;100.00;95632.21;108690;1273;22543;-84
2024/03/26 01:41:38;;;;;;;;;;;;;;;1.67;100.00;95633.34;108645;1274;125314;-83
2024/03/26 01:44:05;;;;;;;;;;;;;;;1.64;100.00;95635.12;108671;1280;24044;-84
2024/03/26 01:46:31;;;;;;;;;;;;;;;1.66;100.00;95636.18;108627;1281;22565;-83
2024/03/26 01:48:58;;;;;;;;;;;;;;;1.64;100.00;95636.88;108587;1260;124570;-83
2024/03/26 01:51:24;;;;;;;;;;;;;;;1.60;100.00;95639.09;108626;1277;22463;-86
2024/03/26 01:53:50;;;;;;;;;;;;;;;1.54;100.00;95634.07;108626;1280;124869;-84
2024/03/26 01:56:17;;;;;;;;;;;;;;;1.47;100.00;95639.42;108613;1281;22537;-83
2024/03/26 01:58:44;;;;;;;;;;;;;;;1.47;100.00;95639.86;108646;1280;24204;-83
2024/03/26 02:01:11;;;;;;;;;;;;;;;1.44;100.00;95638.59;108553;1280;124681;-87
2024/03/26 02:03:37;;;;;;;;;;;;;;;1.40;100.00;95638.45;108616;1261;24183;-87
2024/03/26 02:06:03;;;;;;;;;;;;;;;1.34;100.00;95638.88;108469;1281;124813;-87
2024/03/26 02:08:30;;;;;;;;;;;;;;;1.28;100.00;95635.95;108657;1280;24275;-86
2024/03/26 02:10:56;;;;;;;;;;;;;;;1.19;100.00;95632.70;108624;1277;24127;-86
2024/03/26 02:13:23;;;;;;;;;;;;;;;1.11;100.00;95632.27;108585;1279;124892;-85
2024/03/26 02:15:49;;;;;;;;;;;;;;;1.03;100.00;95634.41;108738;1280;22460;-85
2024/03/26 02:18:15;;;;;;;;;;;;;;;0.97;100.00;95634.41;108631;1261;125206;-86
2024/03/26 02:20:41;;;;;;;;;;;;;;;0.93;100.00;95627.44;108675;1280;24027;-86
2024/03/26 02:23:08;;;;;;;;;;;;;;;0.86;100.00;95624.55;108517;1280;124854;-86
2024/03/26 02:25:34;;;;;;;;;;;;;;;0.81;100.00;95625.33;108649;1280;25060;-85
2024/03/26 02:28:01;;;;;;;;;;;;;;;0.78;100.00;95624.36;108605;1280;22542;-86
2024/03/26 02:30:29;;;;;;;;;;;;;;;0.80;100.00;95622.84;108594;1274;124574;-86
2024/03/26 02:32:55;;;;;;;;;;;;;;;0.92;100.00;95618.67;108660;1280;22554;-86
2024/03/26 02:35:21;;;;;;;;;;;;;;;1.14;100.00;95620.03;108554;1273;125163;-86
2024/03/26 02:37:50;;;;;;;;;;;;;;;1.32;100.00;95619.56;108656;1272;22511;-86
2024/03/26 02:40:16;;;;;;;;;;;;;;;1.47;100.00;95620.88;108666;1273;22513;-85
2024/03/26 02:42:42;;;;;;;;;;;;;;;1.55;100.00;95615.58;108584;1280;124865;-86
2024/03/26 02:45:09;;;;;;;;;;;;;;;1.63;100.00;95617.00;108670;1278;22743;-86
2024/03/26 02:47:35;;;;;;;;;;;;;;;1.69;100.00;95614.88;108553;1264;124738;-86
2024/03/26 02:50:01;;;;;;;;;;;;;;;1.80;100.00;95617.42;108684;1280;22676;-86
2024/03/26 02:52:28;;;;;;;;;;;;;;;1.92;100.00;95618.64;108636;1273;24203;-86
2024/03/26 02:54:54;;;;;;;;;;;;;;;1.97;100.00;95622.33;108532;1273;124704;-86
2024/03/26 02:57:20;;;;;;;;;;;;;;;1.96;100.00;95622.72;108703;1280;22547;-86
2024/03/26 02:59:47;;;;;;;;;;;;;;;1.91;100.00;95619.41;108585;1280;124710;-86
2024/03/26 03:02:13;;;;;;;;;;;;;;;1.85;100.00;95620.38;108635;1264;22500;-86
2024/03/26 03:04:39;;;;;;;;;;;;;;;1.77;100.00;95624.53;108675;1280;22528;-85
2024/03/26 03:07:06;;;;;;;;;;;;;;;1.73;100.00;95620.04;108538;1281;124618;-86
2024/03/26 03:09:32;;;;;;;;;;;;;;;1.79;100.00;95614.23;108598;1273;22570;-86
2024/03/26 03:11:58;;;;;;;;;;;;;;;1.82;100.00;95616.23;108551;1280;124817;-86
2024/03/26 03:14:25;;;;;;;;;;;;;;;1.81;100.00;95618.38;108582;1280;22463;-86
2024/03/26 03:16:52;;;;;;;;;;;;;;;1.79;100.00;95620.08;108644;1276;25253;-85
2024/03/26 03:19:18;;;;;;;;;;;;;;;1.78;100.00;95619.13;108517;1281;125021;-86
2024/03/26 03:21:44;;;;;;;;;;;;;;;1.76;100.00;95618.95;108673;1273;22531;-86
2024/03/26 03:24:11;;;;;;;;;;;;;;;1.72;100.00;95614.94;108513;1273;124748;-86
2024/03/26 03:26:38;;;;;;;;;;;;;;;1.69;100.00;95612.14;108716;1269;22654;-86
2024/03/26 03:29:04;;;;;;;;;;;;;;;1.65;100.00;95610.98;108598;1280;125163;-86
2024/03/26 03:31:30;;;;;;;;;;;;;;;1.67;100.00;95610.80;108689;1276;22539;-86
2024/03/26 03:33:57;;;;;;;;;;;;;;;1.75;100.00;95611.06;108644;1280;22643;-86
2024/03/26 03:36:23;;;;;;;;;;;;;;;1.74;100.00;95609.96;108615;1266;124610;-86
2024/03/26 03:38:49;;;;;;;;;;;;;;;1.71;100.00;95610.08;108703;1280;22464;-86
2024/03/26 03:41:16;;;;;;;;;;;;;;;1.68;100.00;95606.05;108676;1280;124783;-86
2024/03/26 03:43:42;;;;;;;;;;;;;;;1.65;100.00;95609.25;108626;1261;24906;-86
2024/03/26 03:46:08;;;;;;;;;;;;;;;1.62;100.00;95608.52;108667;1273;22523;-85
2024/03/26 03:48:34;;;;;;;;;;;;;;;1.59;100.00;95608.52;108577;1278;124732;-85
2024/03/26 03:51:01;;;;;;;;;;;;;;;1.57;100.00;95608.17;108651;1281;25403;-86
2024/03/26 03:53:27;;;;;;;;;;;;;;;1.55;100.00;95606.80;108561;1280;124853;-86
2024/03/26 03:55:54;;;;;;;;;;;;;;;1.53;100.00;95608.17;108675;1260;22532;-86
2024/03/26 03:58:20;;;;;;;;;;;;;;;1.51;100.00;95608.56;108641;1280;22544;-86
2024/03/26 04:00:46;;;;;;;;;;;;;;;1.47;100.00;95607.55;108586;1280;125086;-86
2024/03/26 04:03:13;;;;;;;;;;;;;;;1.47;100.00;95607.57;108682;1275;22600;-86
2024/03/26 04:05:39;;;;;;;;;;;;;;;1.43;100.00;95608.44;108557;1280;124731;-86
2024/03/26 04:08:06;;;;;;;;;;;;;;;1.41;100.00;95607.27;108665;1280;22479;-86
2024/03/26 04:10:37;;;;;;;;;;;;;;;1.39;100.00;95603.92;108644;1280;23025;-85
2024/03/26 04:13:04;;;;;;;;;;;;;;;1.34;100.00;95602.66;108505;1275;125071;-86
2024/03/26 04:15:30;;;;;;;;;;;;;;;1.30;100.00;95605.40;108649;1273;23822;-86
2024/03/26 04:17:56;;;;;;;;;;;;;;;1.31;100.00;95608.45;108586;1277;124608;-86
2024/03/26 04:20:23;;;;;;;;;;;;;;;1.30;100.00;95608.84;108650;1260;22466;-86
2024/03/26 04:22:49;;;;;;;;;;;;;;;1.29;100.00;95606.50;108649;1280;22621;-86
2024/03/26 04:25:15;;;;;;;;;;;;;;;1.28;100.00;95609.90;108569;1273;124964;-86
2024/03/26 04:27:42;;;;;;;;;;;;;;;1.23;100.00;95611.17;108708;1273;22831;-86
2024/03/26 04:30:08;;;;;;;;;;;;;;;1.18;100.00;95610.95;108577;1273;124763;-86
2024/03/26 04:32:35;;;;;;;;;;;;;;;1.17;100.00;95604.91;108659;1280;22532;-86
2024/03/26 04:35:01;;;;;;;;;;;;;;;1.14;100.00;95602.58;108678;1276;23213;-86
2024/03/26 04:37:28;;;;;;;;;;;;;;;1.12;100.00;95604.67;108693;1279;22727;-86
2024/03/26 04:39:54;;;;;;;;;;;;;;;1.08;100.00;95605.56;108731;1269;22476;-86
2024/03/26 04:42:20;;;;;;;;;;;;;;;1.06;100.00;95605.23;108688;1276;125160;-86
2024/03/26 04:44:47;;;;;;;;;;;;;;;1.04;100.00;95605.94;108714;1280;22525;-86
2024/03/26 04:47:13;;;;;;;;;;;;;;;1.03;100.00;95605.58;108616;1280;124761;-86
2024/03/26 04:49:39;;;;;;;;;;;;;;;1.01;100.00;95611.21;108634;1278;22514;-86
2024/03/26 04:52:06;;;;;;;;;;;;;;;1.01;100.00;95607.95;108715;1273;22598;-86
2024/03/26 04:54:33;;;;;;;;;;;;;;;1.03;100.00;95606.56;108528;1280;125297;-87
2024/03/26 04:56:59;;;;;;;;;;;;;;;1.04;100.00;95604.33;108628;1275;22655;-86
2024/03/26 04:59:25;;;;;;;;;;;;;;;1.03;100.00;95607.05;108592;1262;124843;-86
2024/03/26 05:01:52;;;;;;;;;;;;;;;1.04;100.00;95605.84;108664;1280;22565;-86
2024/03/26 05:04:18;;;;;;;;;;;;;;;1.05;100.00;95607.58;108678;1276;22972;-86
2024/03/26 05:06:44;;;;;;;;;;;;;;;1.06;100.00;95604.13;108598;1276;124624;-86
2024/03/26 05:09:11;;;;;;;;;;;;;;;1.07;100.00;95607.73;108650;1280;24240;-87
2024/03/26 05:11:37;;;;;;;;;;;;;;;1.09;100.00;95606.37;108623;1280;124823;-86
2024/03/26 05:14:04;;;;;;;;;;;;;;;1.06;100.00;95604.23;108651;1272;25902;-86
2024/03/26 05:16:30;;;;;;;;;;;;;;;1.03;100.00;95607.36;108721;1274;22553;-87
2024/03/26 05:18:57;;;;;;;;;;;;;;;1.01;100.00;95607.77;108546;1275;124604;-86
2024/03/26 05:21:23;;;;;;;;;;;;;;;1.02;100.00;95605.15;108643;1273;22584;-86
2024/03/26 05:23:49;;;;;;;;;;;;;;;1.04;100.00;95604.79;108643;1273;124571;-85
2024/03/26 05:26:16;;;;;;;;;;;;;;;1.06;100.00;95606.81;108642;1278;22606;-85
2024/03/26 05:28:43;;;;;;;;;;;;;;;1.07;100.00;95596.66;108737;1272;24177;-86
2024/03/26 05:31:19;;;;;;;;;;;;;;;1.07;100.00;95598.67;108542;1279;124728;-86
2024/03/26 05:33:46;;;;;;;;;;;;;;;1.08;100.00;95598.05;108717;1273;23830;-85
2024/03/26 05:36:13;;;;;;;;;;;;;;;1.08;100.00;95599.10;108560;1280;124637;-85
2024/03/26 05:38:40;;;;;;;;;;;;;;;1.07;100.00;95600.73;108630;1275;22474;-85
2024/03/26 05:41:06;;;;;;;;;;;;;;;1.05;100.00;95598.34;108578;1259;125061;-86
2024/03/26 05:43:33;;;;;;;;;;;;;;;1.04;100.00;95600.71;108696;1277;22558;-86
2024/03/26 05:45:59;;;;;;;;;;;;;;;1.00;100.00;95603.92;108609;1273;22472;-86
2024/03/26 05:48:26;;;;;;;;;;;;;;;0.99;100.00;95600.15;108546;1262;125735;-86
2024/03/26 05:50:52;;;;;;;;;;;;;;;0.97;100.00;95597.05;108645;1275;22505;-85
2024/03/26 05:53:19;;;;;;;;;;;;;;;0.97;100.00;95598.94;108542;1280;124717;-86
2024/03/26 05:55:46;;;;;;;;;;;;;;;0.95;100.00;95599.54;108678;1265;22557;-86
2024/03/26 05:58:12;;;;;;;;;;;;;;;0.93;100.00;95599.46;108675;1280;22570;-85
2024/03/26 06:00:39;;;;;;;;;;;;;;;0.94;100.00;95598.89;108572;1280;124806;-86
2024/03/26 06:03:05;;;;;;;;;;;;;;;0.95;100.00;95597.38;108638;1280;22510;-86
2024/03/26 06:05:32;;;;;;;;;;;;;;;0.94;100.00;95592.70;108614;1279;124759;-86
2024/03/26 06:07:58;;;;;;;;;;;;;;;0.96;100.00;95593.09;108634;1279;24738;-86
2024/03/26 06:10:24;;;;;;;;;;;;;;;0.97;100.00;95597.06;108703;1279;25196;-86
2024/03/26 06:12:50;;;;;;;;;;;;;;;1.01;100.00;95594.84;108588;1273;124976;-85
2024/03/26 06:15:17;;;;;;;;;;;;;;;1.03;100.00;95595.38;108688;1270;22606;-86
2024/03/26 06:17:43;;;;;;;;;;;;;;;1.08;100.00;95597.79;108581;1275;124957;-85
2024/03/26 06:20:10;;;;;;;;;;;;;;;1.14;100.00;95593.23;108625;1275;23861;-86
2024/03/26 06:22:36;;;;;;;;;;;;;;;1.24;100.00;95599.02;108647;1276;24357;-86
2024/03/26 06:25:03;;;;;;;;;;;;;;;1.31;100.00;95594.41;108581;1269;124677;-86
2024/03/26 06:27:29;;;;;;;;;;;;;;;1.35;100.00;95603.73;108654;1280;22503;-86
2024/03/26 06:29:56;;;;;;;;;;;;;;;1.40;100.00;95602.98;108580;1273;124670;-86
2024/03/26 06:32:22;;;;;;;;;;;;;;;1.47;100.00;95600.40;108662;1277;23213;-86
2024/03/26 06:34:49;;;;;;;;;;;;;;;1.57;100.00;95600.84;108710;1273;23248;-86
2024/03/26 06:37:15;;;;;;;;;;;;;;;1.62;100.00;95595.05;108602;1272;124629;-86
2024/03/26 06:39:41;;;;;;;;;;;;;;;1.68;100.00;95601.15;108661;1272;22530;-87
2024/03/26 06:42:07;;;;;;;;;;;;;;;1.74;100.00;95601.23;108641;1280;124576;-86
2024/03/26 06:44:34;;;;;;;;;;;;;;;1.81;100.00;95602.33;108715;1263;25251;-86
2024/03/26 06:47:01;;;;;;;;;;;;;;;1.88;100.00;95593.92;108766;1279;22520;-87
2024/03/26 06:49:27;;;;;;;;;;;;;;;1.97;100.00;95592.88;108575;1278;125226;-86
2024/03/26 06:51:54;;;;;;;;;;;;;;;2.06;100.00;95592.36;108663;1275;22672;-87
2024/03/26 06:54:20;;;;;;;;;;;;;;;2.15;100.00;95596.33;108545;1281;125411;-86
2024/03/26 06:56:48;;;;;;;;;;;;;;;2.19;100.00;95586.27;108713;1280;22507;-87
2024/03/26 06:59:14;;;;;;;;;;;;;;;2.33;100.00;95591.05;108587;1274;124945;-87
2024/03/26 07:01:41;;;;;;;;;;;;;;;2.45;100.00;95592.16;108606;1280;22457;-87
2024/03/26 07:04:07;;;;;;;;;;;;;;;2.56;100.00;95593.23;108695;1280;22519;-87
2024/03/26 07:06:34;;;;;;;;;;;;;;;2.74;100.00;95592.15;108563;1280;124595;-86
2024/03/26 07:09:00;;;;;;;;;;;;;;;2.98;100.00;95594.83;108605;1280;23193;-86
2024/03/26 07:11:26;;;;;;;;;;;;;;;3.27;99.97;95588.17;108610;1280;124795;-87
2024/03/26 07:13:53;;;;;;;;;;;;;;;3.50;97.28;95592.79;108697;1259;25240;-86
2024/03/26 07:16:21;;;;;;;;;;;;;;;3.79;92.08;95590.81;108677;1280;25442;-86
2024/03/26 07:18:47;;;;;;;;;;;;;;;4.06;94.13;95586.11;108610;1272;124373;-87
2024/03/26 07:21:14;;;;;;;;;;;;;;;4.23;91.87;95582.67;108706;1280;25250;-86
2024/03/26 07:23:40;;;;;;;;;;;;;;;4.39;91.14;95584.00;108588;1275;124722;-84
2024/03/26 07:26:06;;;;;;;;;;;;;;;4.56;90.86;95582.70;108707;1273;22533;-85
2024/03/26 07:28:33;;;;;;;;;;;;;;;4.70;90.33;95576.58;108684;1273;25851;-83
2024/03/26 07:30:59;;;;;;;;;;;;;;;4.83;89.42;95577.92;108533;1275;124445;-83
2024/03/26 07:33:26;;;;;;;;;;;;;;;4.98;88.99;95578.05;108638;1280;25200;-83
2024/03/26 07:35:52;;;;;;;;;;;;;;;5.14;86.69;95571.98;108605;1280;124907;-83
2024/03/26 07:38:19;;;;;;;;;;;;;;;5.27;86.68;95568.98;108693;1275;22469;-84
2024/03/26 07:40:45;;;;;;;;;;;;;;;5.40;86.05;95574.10;108683;1280;22503;-83
2024/03/26 07:43:11;;;;;;;;;;;;;;;5.50;85.34;95574.67;108584;1278;124469;-84
2024/03/26 07:45:37;;;;;;;;;;;;;;;5.63;82.35;95575.00;108676;1280;22497;-83
2024/03/26 07:48:04;;;;;;;;;;;;;;;5.74;84.04;95574.02;108563;1280;125019;-83
2024/03/26 07:50:30;;;;;;;;;;;;;;;5.85;82.83;95578.84;108674;1280;22550;-83
2024/03/26 07:52:57;;;;;;;;;;;;;;;5.95;83.11;95567.39;108692;1280;25386;-84
2024/03/26 07:55:24;;;;;;;;;;;;;;;6.04;82.03;95566.63;108613;1272;124334;-83
2024/03/26 07:57:50;;;;;;;;;;;;;;;6.11;82.99;95567.63;108582;1278;22520;-83
2024/03/26 08:00:16;;;;;;;;;;;;;;;6.21;82.20;95563.97;108551;1280;124402;-83
2024/03/26 08:02:43;;;;;;;;;;;;;;;6.29;81.27;95572.27;108645;1275;22478;-83
2024/03/26 08:05:09;;;;;;;;;;;;;;;6.37;83.25;95572.97;108527;1280;124613;-84
2024/03/26 08:07:35;;;;;;;;;;;;;;;6.44;81.86;95573.05;108734;1280;22683;-84
2024/03/26 08:10:02;;;;;;;;;;;;;;;6.55;78.29;95570.77;108647;1277;24194;-84
2024/03/26 08:12:28;;;;;;;;;;;;;;;6.63;77.79;95566.54;108620;1273;124354;-84
2024/03/26 08:14:55;;;;;;;;;;;;;;;6.71;78.97;95566.47;108648;1280;22456;-84
2024/03/26 08:17:22;;;;;;;;;;;;;;;6.80;79.88;95566.81;108569;1275;124600;-84
2024/03/26 08:19:48;;;;;;;;;;;;;;;6.88;76.52;95563.54;108691;1280;22598;-84
2024/03/26 08:22:14;;;;;;;;;;;;;;;6.95;78.60;95559.31;108569;1280;22551;-84
2024/03/26 08:24:41;;;;;;;;;;;;;;;7.02;79.55;95555.84;108582;1276;123973;-84
2024/03/26 08:27:07;;;;;;;;;;;;;;;7.09;76.84;95559.45;108592;1280;22470;-84
2024/03/26 08:29:34;;;;;;;;;;;;;;;7.15;76.19;95559.70;108538;1280;124539;-84
2024/03/26 08:32:00;;;;;;;;;;;;;;;7.21;76.69;95562.30;108647;1275;24237;-83
2024/03/26 08:34:26;;;;;;;;;;;;;;;7.26;73.27;95560.86;108627;1280;22568;-84
2024/03/26 08:36:53;;;;;;;;;;;;;;;7.32;74.33;95558.91;108518;1280;123931;-84
2024/03/26 08:39:19;;;;;;;;;;;;;;;7.36;73.34;95557.41;108679;1272;22575;-84
2024/03/26 08:41:46;;;;;;;;;;;;;;;7.40;74.89;95560.07;108595;1280;124472;-84
2024/03/26 08:44:13;;;;;;;;;;;;;;;7.45;73.72;95556.21;108700;1274;22727;-86
2024/03/26 08:46:39;;;;;;;;;;;;;;;7.52;74.29;95558.27;108638;1278;22543;-87
2024/03/26 08:49:06;;;;;;;;;;;;;;;7.58;74.09;95552.30;108540;1273;123712;-86
2024/03/26 08:51:32;;;;;;;;;;;;;;;7.66;74.76;95548.47;108646;1280;24223;-87
2024/03/26 08:53:59;;;;;;;;;;;;;;;7.72;74.80;95543.42;108613;1276;123800;-86
2024/03/26 08:56:25;;;;;;;;;;;;;;;7.82;76.34;95545.35;108622;1277;22555;-86
2024/03/26 08:58:52;;;;;;;;;;;;;;;7.94;74.90;95549.27;108675;1275;22560;-86
2024/03/26 09:01:18;;;;;;;;;;;;;;;8.00;73.04;95545.98;108507;1278;124773;-86
2024/03/26 09:03:44;;;;;;;;;;;;;;;8.05;73.93;95546.59;108561;1280;22570;-88
2024/03/26 09:06:10;;;;;;;;;;;;;;;8.10;73.03;95548.65;108551;1280;123971;-87
2024/03/26 09:08:37;;;;;;;;;;;;;;;8.15;71.57;95552.09;108716;1280;22541;-88
2024/03/26 09:11:03;;;;;;;;;;;;;;;8.21;72.66;95549.75;108567;1277;124353;-87
2024/03/26 09:13:30;;;;;;;;;;;;;;;8.29;74.00;95561.52;108670;1280;23954;-87
2024/03/26 09:15:56;;;;;;;;;;;;;;;8.36;71.54;95564.44;108732;1273;22530;-87
2024/03/26 09:18:22;;;;;;;;;;;;;;;8.40;71.38;95560.48;108548;1280;123916;-86
2024/03/26 09:20:49;;;;;;;;;;;;;;;8.44;72.04;95555.73;108754;1272;22524;-86
2024/03/26 09:23:15;;;;;;;;;;;;;;;8.47;71.01;95556.08;108710;1272;124299;-87
2024/03/26 09:25:42;;;;;;;;;;;;;;;8.48;69.28;95559.46;108700;1275;22593;-87
2024/03/26 09:28:08;;;;;;;;;;;;;;;8.53;69.59;95558.42;108756;1276;22614;-87
2024/03/26 09:30:36;;;;;;;;;;;;;;;8.60;71.12;95557.42;108638;1276;123958;-87
2024/03/26 09:33:03;;;;;;;;;;;;;;;8.65;67.85;95553.21;108709;1281;22526;-87
2024/03/26 09:35:29;;;;;;;;;;;;;;;8.71;68.97;95555.16;108560;1280;124635;-87
2024/03/26 09:37:57;;;;;;;;;;;;;;;8.77;70.70;95544.34;108725;1280;22528;-88
2024/03/26 09:40:23;;;;;;;;;;;;;;;8.82;71.16;95548.49;108512;1280;179064;-84
2024/03/26 09:42:49;;;;;;;;;;;;;;;8.90;71.85;95548.48;108595;1280;123931;-84
2024/03/26 09:45:16;;;;;;;;;;;;;;;8.98;72.99;95539.05;108689;1280;22455;-84
2024/03/26 09:47:42;;;;;;;;;;;;;;;9.07;70.91;95535.54;108602;1275;124037;-83
2024/03/26 09:50:10;;;;;;;;;;;;;;;9.14;73.82;95528.71;108666;1280;24328;-83
2024/03/26 09:52:38;;;;;;;;;;;;;;;9.24;72.78;95525.95;108779;1272;22521;-83
2024/03/26 09:55:05;;;;;;;;;;;;;;;9.32;71.79;95521.05;108667;1272;123914;-83
2024/03/26 09:57:32;;;;;;;;;;;;;;;9.42;72.82;95522.20;108631;1280;22773;-84
2024/03/26 09:59:58;;;;;;;;;;;;;;;9.53;72.58;95515.16;108621;1275;123700;-83
2024/03/26 10:02:24;;;;;;;;;;;;;;;9.62;70.75;95519.97;108661;1280;22462;-83
2024/03/26 10:04:51;;;;;;;;;;;;;;;9.70;71.84;95512.40;108669;1268;22520;-83
2024/03/26 10:07:17;;;;;;;;;;;;;;;9.77;72.28;95516.65;108587;1280;124122;-83
2024/03/26 10:09:43;;;;;;;;;;;;;;;9.83;70.56;95511.11;108670;1275;22621;-83
2024/03/26 10:12:10;;;;;;;;;;;;;;;9.90;70.29;95512.02;108543;1275;124069;-83
2024/03/26 10:14:37;;;;;;;;;;;;;;;9.96;69.96;95514.80;108626;1280;22599;-84
2024/03/26 10:17:04;;;;;;;;;;;;;;;10.01;70.63;95508.88;108497;1273;123992;-84
2024/03/26 10:19:30;;;;;;;;;;;;;;;10.09;68.56;95518.19;108695;1275;22571;-83
2024/03/26 10:21:56;;;;;;;;;;;;;;;10.14;68.47;95518.48;108717;1275;25496;-83
2024/03/26 10:24:23;;;;;;;;;;;;;;;10.16;68.60;95519.67;108603;1275;124036;-84
2024/03/26 10:26:50;;;;;;;;;;;;;;;10.19;66.77;95516.07;108627;1275;22502;-83
2024/03/26 10:29:17;;;;;;;;;;;;;;;10.20;65.90;95519.15;108592;1279;124512;-84
2024/03/26 10:31:44;;;;;;;;;;;;;;;10.22;65.31;95527.16;108750;1280;24236;-83
2024/03/26 10:34:12;;;;;;;;;;;;;;;10.19;62.84;95523.61;108733;1280;23291;-83
2024/03/26 10:36:39;;;;;;;;;;;;;;;10.19;65.07;95517.95;108581;1280;124038;-84
2024/03/26 10:39:06;;;;;;;;;;;;;;;10.21;65.33;95514.61;108720;1280;22477;-83
2024/03/26 10:41:33;;;;;;;;;;;;;;;10.23;66.53;95514.30;108615;1278;124899;-83
2024/03/26 10:44:00;;;;;;;;;;;;;;;10.29;64.82;95520.31;108696;1280;23818;-83
2024/03/26 10:46:30;;;;;;;;;;;;;;;10.31;65.18;95509.16;108660;1278;22471;-83
2024/03/26 10:49:00;;;;;;;;;;;;;;;10.37;64.10;95513.94;108515;1280;124226;-83
2024/03/26 10:51:27;;;;;;;;;;;;;;;10.41;65.58;95508.86;108683;1280;22490;-83
2024/03/26 10:53:55;;;;;;;;;;;;;;;10.48;65.28;95510.10;108543;1280;124316;-83
2024/03/26 10:56:22;;;;;;;;;;;;;;;10.51;65.10;95512.36;108673;1280;22579;-83
2024/03/26 10:58:48;;;;;;;;;;;;;;;10.55;64.84;95503.97;108645;1278;25244;-83
2024/03/26 11:01:15;;;;;;;;;;;;;;;10.62;64.60;95505.40;108571;1275;124088;-83
2024/03/26 11:03:41;;;;;;;;;;;;;;;10.65;65.39;95500.27;108712;1280;22570;-83
2024/03/26 11:06:07;;;;;;;;;;;;;;;10.73;65.38;95492.79;108500;1280;124213;-83
2024/03/26 11:08:40;;;;;;;;;;;;;;;10.81;64.48;95496.28;108627;1280;22655;-83
2024/03/26 11:11:06;;;;;;;;;;;;;;;10.88;65.53;95501.30;108526;1275;124403;-83
2024/03/26 11:13:33;;;;;;;;;;;;;;;10.96;65.97;95498.42;108693;1275;22526;-83
2024/03/26 11:15:59;;;;;;;;;;;;;;;11.02;63.30;95509.16;108720;1276;22535;-86
2024/03/26 11:18:27;;;;;;;;;;;;;;;11.03;62.30;95491.44;108565;1275;124254;-86
2024/03/26 11:20:57;;;;;;;;;;;;;;;11.01;62.62;95501.09;110009;1275;22381;-86
2024/03/26 11:23:23;;;;;;;;;;;;;;;11.00;60.87;95485.98;109902;1275;124825;-86
2024/03/26 11:25:53;;;;;;;;;;;;;;;10.97;61.09;95488.42;110024;1279;22399;-87
2024/03/26 11:28:20;;;;;;;;;;;;;;;10.99;61.94;95472.91;110072;1278;22413;-87
2024/03/26 11:30:46;;;;;;;;;;;;;;;11.07;60.76;95477.01;109983;1280;124214;-87
2024/03/26 11:33:22;;;;;;;;;;;;;;;11.09;61.07;95461.67;109992;1275;22405;-87
2024/03/26 11:35:49;;;;;;;;;;;;;;;11.13;61.73;95445.02;109884;1280;124433;-86
2024/03/26 11:38:15;;;;;;;;;;;;;;;11.18;61.22;95453.70;109992;1275;22411;-87
2024/03/26 11:40:42;;;;;;;;;;;;;;;11.19;62.83;95444.05;110004;1275;23005;-87
2024/03/26 11:43:09;;;;;;;;;;;;;;;11.26;61.12;95436.83;109888;1275;124382;-88
2024/03/26 11:45:36;;;;;;;;;;;;;;;11.31;62.49;95446.15;108979;1280;22462;-87
2024/03/26 11:48:02;;;;;;;;;;;;;;;11.37;60.56;95438.96;108638;1280;124226;-87
2024/03/26 11:50:29;;;;;;;;;;;;;;;11.40;61.21;95434.47;108621;1280;24845;-87
2024/03/26 11:52:55;;;;;;;;;;;;;;;11.48;62.64;95434.80;108684;1275;22458;-87
2024/03/26 11:55:22;;;;;;;;;;;;;;;11.53;60.72;95419.80;108511;1271;124370;-87
2024/03/26 11:57:49;;;;;;;;;;;;;;;11.57;60.86;95416.43;108667;1280;22552;-87
2024/03/26 12:00:16;;;;;;;;;;;;;;;11.59;60.91;95409.52;108492;1275;124699;-87
2024/03/26 12:02:42;;;;;;;;;;;;;;;11.68;58.43;95429.98;108639;1275;24315;-87
2024/03/26 12:05:08;;;;;;;;;;;;;;;11.72;59.70;95416.27;108558;1276;124597;-86
2024/03/26 12:07:34;;;;;;;;;;;;;;;11.76;59.73;95418.30;108630;1278;22495;-87
2024/03/26 12:10:01;;;;;;;;;;;;;;;11.78;55.83;95409.23;108722;1273;22814;-87
2024/03/26 12:12:27;;;;;;;;;;;;;;;11.77;58.84;95396.02;108545;1281;126023;-87
2024/03/26 12:14:53;;;;;;;;;;;;;;;11.83;58.18;95400.52;108676;1275;24299;-87
2024/03/26 12:17:20;;;;;;;;;;;;;;;11.87;58.82;95379.30;108521;1280;124372;-87
2024/03/26 12:19:46;;;;;;;;;;;;;;;11.95;59.50;95386.68;108641;1275;22509;-87
2024/03/26 12:22:19;;;;;;;;;;;;;;;12.03;59.81;95387.33;108705;1280;22641;-87
2024/03/26 12:24:46;;;;;;;;;;;;;;;12.07;58.58;95382.10;108505;1281;124202;-87
2024/03/26 12:27:13;;;;;;;;;;;;;;;12.10;56.35;95378.41;108626;1280;22653;-87
2024/03/26 12:29:41;;;;;;;;;;;;;;;12.08;57.07;95376.35;108580;1280;124394;-87
2024/03/26 12:32:08;;;;;;;;;;;;;;;12.11;57.49;95370.39;108695;1280;24212;-87